TimeEDT,TemperatureF,Dew PointF,Humidity,Sea Level PressureIn,VisibilityMPH,Wind Direction,Wind SpeedMPH,Gust SpeedMPH,PrecipitationIn,Events,Conditions,WindDirDegrees,DateUTC
12:56 AM,43.0,37.9,82,29.93,10.0,Calm,Calm,-,N/A,,Clear,0,2012-10-17 04:56:00
1:56 AM,43.0,39.0,86,29.93,10.0,ESE,3.5,-,N/A,,Clear,110,2012-10-17 05:56:00
2:56 AM,39.0,36.0,89,29.93,10.0,Calm,Calm,-,N/A,,Clear,0,2012-10-17 06:56:00
3:56 AM,37.9,36.0,93,29.93,10.0,Calm,Calm,-,N/A,,Clear,0,2012-10-17 07:56:00
4:56 AM,37.9,35.1,89,29.94,10.0,Calm,Calm,-,N/A,,Clear,0,2012-10-17 08:56:00
6:56 AM,36.0,34.0,93,29.97,10.0,Calm,Calm,-,N/A,,Clear,0,2012-10-17 10:56:00
7:56 AM,39.0,36.0,89,29.98,10.0,Calm,Calm,-,N/A,,Clear,0,2012-10-17 11:56:00
8:56 AM,48.9,41.0,74,30.00,10.0,Calm,Calm,-,N/A,,Clear,0,2012-10-17 12:56:00
9:56 AM,53.1,39.0,59,30.02,10.0,NNW,10.4,-,N/A,,Clear,340,2012-10-17 13:56:00
10:56 AM,55.0,39.0,55,30.00,10.0,NW,12.7,-,N/A,,Clear,310,2012-10-17 14:56:00
11:56 AM,57.9,39.0,49,29.99,10.0,NW,8.1,-,N/A,,Clear,320,2012-10-17 15:56:00
12:56 PM,57.9,37.0,46,29.97,10.0,NW,8.1,-,N/A,,Clear,320,2012-10-17 16:56:00
1:56 PM,59.0,39.0,48,29.96,10.0,NW,8.1,-,N/A,,Clear,310,2012-10-17 17:56:00
2:56 PM,59.0,37.9,46,29.96,10.0,WNW,6.9,-,N/A,,Clear,300,2012-10-17 18:56:00
3:56 PM,59.0,39.0,48,29.96,10.0,Calm,Calm,-,N/A,,Clear,0,2012-10-17 19:56:00
4:56 PM,57.9,44.1,60,29.96,10.0,South,8.1,-,N/A,,Clear,190,2012-10-17 20:56:00
5:56 PM,55.9,44.1,64,29.97,10.0,SSW,3.5,-,N/A,,Clear,200,2012-10-17 21:56:00
6:56 PM,54.0,45.0,72,29.99,10.0,SSW,3.5,-,N/A,,Clear,210,2012-10-17 22:56:00
7:56 PM,50.0,45.0,83,29.99,10.0,Calm,Calm,-,N/A,,Clear,0,2012-10-17 23:56:00
8:56 PM,48.0,44.1,86,30.00,10.0,Calm,Calm,-,N/A,,Clear,0,2012-10-18 00:56:00
9:56 PM,46.9,44.1,90,30.01,10.0,Calm,Calm,-,N/A,,Clear,0,2012-10-18 01:56:00
10:56 PM,46.0,42.1,86,30.02,10.0,Calm,Calm,-,N/A,,Clear,0,2012-10-18 02:56:00
11:56 PM,43.0,41.0,93,30.01,8.0,Calm,Calm,-,N/A,,Clear,0,2012-10-18 03:56:00